createdAt,value
2022-10-13T00:00:25.425Z,3.78
2022-10-13T00:02:51.890Z,3.90
2022-10-13T00:05:18.853Z,4.85
2022-10-13T00:07:45.181Z,3.53
2022-10-13T00:10:11.501Z,3.58
2022-10-13T00:12:38.523Z,4.65
2022-10-13T00:15:07.110Z,3.28
2022-10-13T00:17:34.025Z,4.55
2022-10-13T00:20:00.436Z,5.05
2022-10-13T00:22:27.808Z,3.90
2022-10-13T00:24:54.179Z,3.78
2022-10-13T00:27:20.682Z,4.32
2022-10-13T00:29:47.021Z,4.22
2022-10-13T00:32:13.488Z,4.07
2022-10-13T00:34:40.081Z,4.22
2022-10-13T00:37:06.677Z,4.03
2022-10-13T00:39:33.137Z,4.13
2022-10-13T00:42:00.285Z,3.95
2022-10-13T00:45:09.074Z,4.90
2022-10-13T00:47:45.043Z,4.10
2022-10-13T00:50:16.570Z,4.15
2022-10-13T00:52:44.547Z,4.03
2022-10-13T00:55:17.391Z,4.10
2022-10-13T00:57:48.269Z,3.78
2022-10-13T01:00:15.112Z,3.90
2022-10-13T01:02:41.531Z,3.63
2022-10-13T01:05:08.469Z,3.38
2022-10-13T01:07:35.781Z,3.58
2022-10-13T01:10:03.578Z,3.85
2022-10-13T01:12:49.734Z,3.42
2022-10-13T01:15:41.616Z,3.83
2022-10-13T01:20:58.305Z,3.28
2022-10-13T01:23:53.948Z,4.70
2022-10-13T01:26:32.782Z,4.03
2022-10-13T01:29:11.202Z,3.70
2022-10-13T01:32:10.816Z,4.22
2022-10-13T01:34:50.271Z,4.18
2022-10-13T01:37:33.370Z,4.80
2022-10-13T01:40:28.458Z,5.18
2022-10-13T01:43:03.899Z,4.47
2022-10-13T01:45:58.463Z,3.92
2022-10-13T01:48:27.751Z,3.65
2022-10-13T01:50:55.509Z,4.72
2022-10-13T01:53:23.346Z,3.90
2022-10-13T01:55:55.825Z,4.45
2022-10-13T01:58:24.999Z,4.88
2022-10-13T02:01:04.972Z,4.50
2022-10-13T02:03:46.482Z,4.55
2022-10-13T02:06:20.760Z,4.68
2022-10-13T02:09:25.871Z,3.45
2022-10-13T02:11:59.677Z,4.25
2022-10-13T02:14:32.225Z,3.60
2022-10-13T02:17:03.076Z,4.47
2022-10-13T02:19:33.581Z,4.70
2022-10-13T02:22:00.108Z,4.70
2022-10-13T02:24:26.618Z,4.55
2022-10-13T02:26:53.237Z,4.70
2022-10-13T02:29:19.840Z,4.97
2022-10-13T02:31:47.088Z,5.05
2022-10-13T02:34:14.282Z,4.80
2022-10-13T02:36:41.145Z,5.20
2022-10-13T02:39:09.884Z,4.45
2022-10-13T02:41:36.492Z,5.63
2022-10-13T02:44:02.840Z,5.05
2022-10-13T02:46:29.165Z,4.97
2022-10-13T02:48:55.468Z,5.07
2022-10-13T02:51:21.775Z,4.40
2022-10-13T02:53:48.294Z,5.72
2022-10-13T02:56:14.673Z,4.30
2022-10-13T02:58:40.990Z,5.25
2022-10-13T03:01:13.167Z,6.20
2022-10-13T03:03:40.034Z,5.53
2022-10-13T03:06:06.801Z,5.38
2022-10-13T03:08:34.777Z,5.35
2022-10-13T03:11:01.600Z,5.10
2022-10-13T03:13:28.084Z,4.70
2022-10-13T03:15:54.467Z,5.68
2022-10-13T03:18:20.781Z,7.53
2022-10-13T03:20:56.322Z,5.57
2022-10-13T03:23:22.662Z,5.35
2022-10-13T03:25:48.993Z,5.30
2022-10-13T03:28:15.718Z,6.32
2022-10-13T03:30:42.058Z,5.18
2022-10-13T03:33:08.390Z,4.95
2022-10-13T03:35:34.769Z,5.63
2022-10-13T03:38:01.117Z,5.15
2022-10-13T03:40:28.280Z,4.93
2022-10-13T03:42:55.170Z,5.00
2022-10-13T03:45:21.499Z,5.82
2022-10-13T03:47:47.832Z,4.78
2022-10-13T03:50:14.468Z,6.20
2022-10-13T03:52:41.157Z,5.75
2022-10-13T03:55:07.782Z,5.90
2022-10-13T03:57:34.129Z,6.05
2022-10-13T04:00:00.509Z,4.78
2022-10-13T04:02:26.923Z,5.60
2022-10-13T04:04:53.289Z,5.05
2022-10-13T04:07:19.618Z,5.57
2022-10-13T04:09:45.928Z,5.35
2022-10-13T04:12:13.064Z,5.60
2022-10-13T04:14:41.421Z,4.95
2022-10-13T04:17:07.758Z,5.38
2022-10-13T04:19:34.134Z,5.47
2022-10-13T04:22:00.498Z,6.28
2022-10-13T04:24:26.886Z,5.60
2022-10-13T04:26:53.394Z,5.00
2022-10-13T04:29:19.756Z,6.57
2022-10-13T04:31:46.139Z,5.25
2022-10-13T04:34:12.686Z,5.05
2022-10-13T04:36:39.072Z,5.35
2022-10-13T04:39:05.434Z,5.53
2022-10-13T04:41:31.792Z,7.30
2022-10-13T04:43:59.030Z,5.60
2022-10-13T04:46:26.872Z,6.88
2022-10-13T04:48:54.675Z,6.40
2022-10-13T04:51:23.433Z,6.50
2022-10-13T04:53:54.957Z,6.97
2022-10-13T04:56:21.296Z,6.78
2022-10-13T04:58:47.772Z,7.22
2022-10-13T05:01:21.869Z,7.20
2022-10-13T05:03:56.621Z,7.03
2022-10-13T05:06:25.657Z,6.70
2022-10-13T05:08:52.169Z,7.30
2022-10-13T05:11:20.431Z,6.13
2022-10-13T05:13:47.710Z,7.30
2022-10-13T05:16:16.154Z,6.57
2022-10-13T05:18:42.700Z,7.05
2022-10-13T05:21:12.007Z,6.55
2022-10-13T05:23:39.026Z,7.05
2022-10-13T05:26:07.787Z,6.30
2022-10-13T05:28:34.799Z,7.25
2022-10-13T05:31:14.291Z,6.93
2022-10-13T05:33:41.651Z,6.70
2022-10-13T05:36:11.353Z,7.32
2022-10-13T05:38:38.533Z,7.43
2022-10-13T05:41:07.184Z,7.15
2022-10-13T05:43:34.219Z,7.03
2022-10-13T05:46:01.061Z,7.78
2022-10-13T05:48:27.683Z,7.15
2022-10-13T05:50:55.772Z,6.32
2022-10-13T05:53:25.219Z,7.47
2022-10-13T05:55:54.449Z,6.53
2022-10-13T05:58:21.218Z,8.07
2022-10-13T06:00:47.891Z,7.88
2022-10-13T06:03:17.567Z,6.85
2022-10-13T06:05:47.343Z,7.25
2022-10-13T06:08:14.837Z,7.35
2022-10-13T06:10:42.694Z,6.90
2022-10-13T06:13:09.856Z,7.43
2022-10-13T06:15:36.485Z,6.57
2022-10-13T06:18:07.561Z,6.80
2022-10-13T06:20:33.874Z,6.60
2022-10-13T06:23:00.201Z,7.72
2022-10-13T06:25:26.588Z,7.13
2022-10-13T06:27:52.943Z,7.70
2022-10-13T06:30:19.249Z,7.55
2022-10-13T06:32:45.612Z,9.25
2022-10-13T06:35:11.962Z,7.30
2022-10-13T06:37:38.297Z,8.90
2022-10-13T06:40:05.530Z,9.98
2022-10-13T06:42:34.787Z,9.00
2022-10-13T06:45:01.272Z,10.65
2022-10-13T06:47:27.652Z,10.40
2022-10-13T06:49:54.297Z,9.00
2022-10-13T06:52:21.022Z,9.82
2022-10-13T06:54:47.758Z,9.27
2022-10-13T06:57:14.176Z,9.75
2022-10-13T06:59:40.522Z,9.27
2022-10-13T07:02:06.928Z,9.43
2022-10-13T07:04:33.308Z,9.73
2022-10-13T07:06:59.700Z,9.93
2022-10-13T07:09:26.110Z,9.82
2022-10-13T07:11:52.479Z,11.63
2022-10-13T07:14:18.799Z,10.13
2022-10-13T07:16:45.387Z,11.35
2022-10-13T07:19:11.753Z,11.45
2022-10-13T07:21:38.107Z,11.30
2022-10-13T07:24:04.692Z,12.10
2022-10-13T07:26:33.770Z,12.63
2022-10-13T07:29:00.608Z,12.38
2022-10-13T07:31:27.271Z,12.63
2022-10-13T07:33:54.233Z,12.57
2022-10-13T07:36:20.590Z,12.68
2022-10-13T07:38:47.094Z,12.27
2022-10-13T07:41:14.593Z,11.70
2022-10-13T07:43:41.956Z,12.00
2022-10-13T07:46:08.632Z,12.77
2022-10-13T07:48:35.724Z,14.07
2022-10-13T07:51:07.469Z,13.00
2022-10-13T07:56:03.253Z,14.55
2022-10-13T07:58:29.568Z,13.02
2022-10-13T08:00:57.821Z,13.27
2022-10-13T08:03:24.207Z,12.85
2022-10-13T08:05:50.514Z,15.05
2022-10-13T08:08:16.966Z,13.88
2022-10-13T08:10:43.336Z,15.13
2022-10-13T08:13:10.816Z,14.80
2022-10-13T08:15:41.924Z,13.55
2022-10-13T08:18:09.236Z,14.23
2022-10-13T08:20:41.416Z,15.15
2022-10-13T08:23:10.636Z,13.63
2022-10-13T08:25:41.019Z,13.88
2022-10-13T08:28:23.998Z,13.02
2022-10-13T08:30:51.884Z,16.00
2022-10-13T08:33:18.309Z,15.48
2022-10-13T08:35:44.744Z,14.50
2022-10-13T08:38:11.195Z,14.52
2022-10-13T08:40:38.843Z,14.23
2022-10-13T08:43:13.831Z,15.38
2022-10-13T08:45:41.692Z,14.93
2022-10-13T08:48:17.905Z,15.38
2022-10-13T08:50:49.868Z,13.35
2022-10-13T08:53:19.142Z,13.20
2022-10-13T08:55:52.111Z,14.38
2022-10-13T08:58:28.876Z,13.30
2022-10-13T09:01:10.475Z,13.23
2022-10-13T09:03:52.153Z,13.93
2022-10-13T09:06:28.524Z,13.80
2022-10-13T09:09:01.337Z,13.38
2022-10-13T09:11:34.655Z,13.73
2022-10-13T09:14:04.409Z,13.27
2022-10-13T09:16:39.470Z,12.88
2022-10-13T09:19:36.542Z,13.25
2022-10-13T09:22:33.992Z,13.45
2022-10-13T09:25:06.463Z,14.07
2022-10-13T09:27:57.050Z,12.90
2022-10-13T09:30:28.133Z,12.82
2022-10-13T09:33:11.784Z,13.15
2022-10-13T09:35:39.445Z,14.18
2022-10-13T09:38:21.354Z,13.85
2022-10-13T09:43:59.472Z,12.95
2022-10-13T09:46:27.721Z,13.80
2022-10-13T09:48:57.378Z,15.38
2022-10-13T09:51:39.416Z,16.33
2022-10-13T09:54:07.217Z,13.98
2022-10-13T09:56:46.119Z,14.30
2022-10-13T09:59:33.858Z,15.05
2022-10-13T10:02:32.264Z,15.02
2022-10-13T10:05:05.381Z,42.90
2022-10-13T10:07:33.232Z,17.35
2022-10-13T10:10:05.290Z,14.65
2022-10-13T10:12:36.932Z,14.60
2022-10-13T10:15:09.516Z,13.93
2022-10-13T10:17:52.009Z,14.88
2022-10-13T10:20:45.762Z,14.25
2022-10-13T10:23:21.783Z,14.38
2022-10-13T10:25:58.593Z,15.13
2022-10-13T10:28:28.005Z,15.10
2022-10-13T10:31:06.400Z,14.18
2022-10-13T10:34:03.018Z,15.82
2022-10-13T10:36:57.385Z,14.23
2022-10-13T10:39:36.845Z,14.40
2022-10-13T10:42:13.545Z,15.70
2022-10-13T10:44:42.695Z,14.63
2022-10-13T10:47:26.886Z,14.77
2022-10-13T10:50:01.685Z,14.50
2022-10-13T10:52:50.458Z,15.52
2022-10-13T10:55:19.832Z,14.50
2022-10-13T10:58:12.219Z,15.20
2022-10-13T11:00:48.881Z,14.68
2022-10-13T11:03:24.459Z,15.25
2022-10-13T11:06:23.046Z,15.35
2022-10-13T11:08:50.452Z,14.43
2022-10-13T11:11:24.906Z,16.13
2022-10-13T11:13:56.366Z,15.90
2022-10-13T11:16:40.750Z,15.82
2022-10-13T11:19:30.879Z,15.98
2022-10-13T11:21:57.140Z,15.68
2022-10-13T11:24:41.640Z,15.18
2022-10-13T11:27:07.905Z,16.83
2022-10-13T11:30:01.724Z,15.20
2022-10-13T11:32:30.466Z,14.40
2022-10-13T11:35:14.593Z,16.58
2022-10-13T11:38:06.439Z,16.10
2022-10-13T11:41:10.955Z,15.10
2022-10-13T11:44:03.714Z,13.77
2022-10-13T11:46:53.292Z,16.02
2022-10-13T11:49:25.829Z,15.60
2022-10-13T11:52:01.215Z,18.23
2022-10-13T11:54:51.101Z,14.40
2022-10-13T11:57:26.321Z,16.55
2022-10-13T11:59:55.866Z,24.58
2022-10-13T12:02:25.171Z,16.98
2022-10-13T12:05:19.174Z,16.50
2022-10-13T12:07:47.490Z,15.18
2022-10-13T12:10:40.770Z,14.13
2022-10-13T12:13:07.753Z,15.10
2022-10-13T12:15:43.197Z,16.17
2022-10-13T12:18:38.198Z,14.57
2022-10-13T12:21:17.448Z,17.35
2022-10-13T12:23:44.032Z,14.85
2022-10-13T12:26:20.342Z,15.43
2022-10-13T12:28:51.297Z,16.17
2022-10-13T12:31:22.559Z,15.80
2022-10-13T12:33:53.792Z,15.15
2022-10-13T12:36:25.296Z,16.15
2022-10-13T12:38:54.062Z,14.50
2022-10-13T12:41:26.828Z,14.05
2022-10-13T12:43:54.048Z,13.98
2022-10-13T12:46:39.298Z,13.23
2022-10-13T12:49:17.261Z,13.57
2022-10-13T12:51:46.751Z,14.23
2022-10-13T12:54:28.873Z,12.95
2022-10-13T12:56:59.751Z,13.13
2022-10-13T12:59:28.939Z,12.90
2022-10-13T13:02:01.473Z,14.10
2022-10-13T13:04:36.874Z,13.07
2022-10-13T13:07:05.421Z,13.82
2022-10-13T13:09:34.200Z,14.48
2022-10-13T13:12:21.729Z,13.63
2022-10-13T13:14:51.098Z,11.90
2022-10-13T13:17:27.691Z,11.65
2022-10-13T13:20:20.554Z,11.55
2022-10-13T13:22:47.001Z,12.05
2022-10-13T13:25:14.812Z,11.77
2022-10-13T13:27:41.165Z,12.20
2022-10-13T13:30:17.107Z,11.93
2022-10-13T13:32:43.534Z,11.52
2022-10-13T13:35:10.725Z,12.23
2022-10-13T13:40:54.033Z,12.18
2022-10-13T13:43:20.413Z,11.45
2022-10-13T13:45:46.730Z,11.65
2022-10-13T13:48:13.229Z,12.10
2022-10-13T13:50:40.189Z,11.43
2022-10-13T13:53:06.576Z,11.68
2022-10-13T13:55:32.964Z,12.27
2022-10-13T13:57:59.309Z,11.95
2022-10-13T14:00:26.696Z,11.05
2022-10-13T14:02:53.537Z,12.10
2022-10-13T14:05:19.930Z,10.80
2022-10-13T14:07:46.258Z,10.82
2022-10-13T14:10:12.604Z,11.13
2022-10-13T14:12:38.950Z,12.15
2022-10-13T14:15:06.307Z,12.30
2022-10-13T14:17:32.679Z,12.82
2022-10-13T14:19:58.988Z,13.18
2022-10-13T14:22:25.742Z,13.63
2022-10-13T14:24:52.690Z,13.95
2022-10-13T14:27:19.030Z,14.90
2022-10-13T14:29:45.412Z,15.40
2022-10-13T14:32:12.004Z,13.00
2022-10-13T14:34:38.367Z,12.50
2022-10-13T14:37:04.762Z,10.85
2022-10-13T14:39:31.089Z,11.85
2022-10-13T14:41:57.621Z,12.48
2022-10-13T14:44:23.985Z,12.50
2022-10-13T14:46:50.626Z,12.52
2022-10-13T14:49:16.985Z,12.30
2022-10-13T14:51:43.370Z,11.80
2022-10-13T14:54:09.753Z,12.15
2022-10-13T14:56:36.318Z,13.77
2022-10-13T14:59:05.938Z,13.80
2022-10-13T15:01:33.466Z,12.55
2022-10-13T15:04:00.834Z,12.32
2022-10-13T15:06:27.514Z,12.52
2022-10-13T15:08:54.786Z,13.00
2022-10-13T15:11:22.007Z,10.38
2022-10-13T15:13:48.858Z,10.98
2022-10-13T15:16:23.722Z,11.90
2022-10-13T15:18:50.772Z,11.98
2022-10-13T15:21:17.692Z,12.60
2022-10-13T15:23:44.772Z,10.88
2022-10-13T15:26:13.132Z,11.95
2022-10-13T15:28:42.382Z,12.73
2022-10-13T15:31:08.867Z,12.88
2022-10-13T15:33:35.281Z,14.20
2022-10-13T15:36:01.802Z,13.25
2022-10-13T15:38:28.269Z,13.07
2022-10-13T15:41:02.847Z,11.95
2022-10-13T15:43:29.438Z,12.43
2022-10-13T15:46:04.587Z,12.98
2022-10-13T15:48:31.706Z,12.80
2022-10-13T15:50:58.104Z,12.05
2022-10-13T15:53:24.891Z,11.75
2022-10-13T15:55:51.358Z,11.95
2022-10-13T15:58:18.188Z,11.15
2022-10-13T16:00:44.816Z,10.73
2022-10-13T16:03:15.541Z,10.57
2022-10-13T16:05:43.257Z,11.73
2022-10-13T16:08:10.191Z,12.18
2022-10-13T16:10:41.830Z,11.70
2022-10-13T16:13:09.623Z,11.50
2022-10-13T16:15:35.994Z,10.68
2022-10-13T16:18:02.462Z,11.98
2022-10-13T16:20:34.200Z,12.05
2022-10-13T16:25:27.360Z,11.70
2022-10-13T16:27:53.682Z,12.38
2022-10-13T16:30:20.066Z,11.75
2022-10-13T16:32:46.434Z,12.48
2022-10-13T16:35:12.950Z,12.73
2022-10-13T16:37:39.294Z,13.25
2022-10-13T16:40:06.086Z,12.52
2022-10-13T16:42:32.431Z,11.75
2022-10-13T16:44:58.772Z,12.02
2022-10-13T16:47:25.258Z,11.40
2022-10-13T16:49:51.753Z,14.20
2022-10-13T16:52:18.062Z,12.18
2022-10-13T16:54:46.573Z,12.70
2022-10-13T16:57:13.103Z,10.50
2022-10-13T16:59:39.512Z,11.57
2022-10-13T17:02:05.842Z,11.88
2022-10-13T17:04:32.248Z,12.00
2022-10-13T17:06:58.930Z,13.38
2022-10-13T17:09:25.386Z,12.25
2022-10-13T17:11:51.706Z,11.75
2022-10-13T17:14:18.121Z,12.45
2022-10-13T17:16:45.150Z,11.80
2022-10-13T17:19:11.494Z,11.80
2022-10-13T17:21:37.903Z,12.77
2022-10-13T17:24:04.354Z,11.70
2022-10-13T17:26:31.459Z,12.23
2022-10-13T17:28:57.884Z,12.52
2022-10-13T17:31:25.110Z,12.85
2022-10-13T17:33:52.925Z,12.07
2022-10-13T17:36:25.169Z,11.68
2022-10-13T17:38:52.925Z,11.70
2022-10-13T17:41:19.679Z,11.48
2022-10-13T17:43:46.396Z,12.13
2022-10-13T17:46:34.983Z,12.30
2022-10-13T17:49:00.727Z,11.75
2022-10-13T17:51:27.896Z,11.77
2022-10-13T17:53:54.512Z,11.27
2022-10-13T17:56:25.226Z,13.25
2022-10-13T17:58:52.302Z,11.60
2022-10-13T18:01:25.177Z,11.93
2022-10-13T18:03:57.694Z,11.40
2022-10-13T18:06:24.227Z,11.88
2022-10-13T18:08:51.238Z,12.65
2022-10-13T18:11:20.720Z,11.25
2022-10-13T18:13:47.409Z,11.57
2022-10-13T18:16:16.765Z,11.13
2022-10-13T18:18:44.864Z,11.98
2022-10-13T18:21:14.266Z,12.30
2022-10-13T18:23:41.438Z,11.20
2022-10-13T18:26:13.398Z,11.55
2022-10-13T18:28:43.298Z,12.20
2022-10-13T18:31:21.280Z,12.52
2022-10-13T18:33:47.990Z,12.60
2022-10-13T18:36:17.363Z,11.95
2022-10-13T18:38:43.774Z,12.10
2022-10-13T18:41:10.216Z,12.30
2022-10-13T18:43:36.793Z,11.45
2022-10-13T18:46:04.162Z,13.25
2022-10-13T18:48:31.431Z,13.27
2022-10-13T18:51:06.233Z,11.95
2022-10-13T18:53:34.935Z,13.05
2022-10-13T18:56:06.669Z,12.48
2022-10-13T19:01:08.312Z,12.57
2022-10-13T19:03:35.924Z,12.65
2022-10-13T19:06:04.266Z,12.35
2022-10-13T19:08:31.070Z,12.50
2022-10-13T19:10:57.511Z,13.27
2022-10-13T19:13:25.563Z,12.50
2022-10-13T19:16:02.045Z,13.98
2022-10-13T19:18:28.431Z,12.38
2022-10-13T19:20:54.785Z,11.57
2022-10-13T19:23:21.950Z,11.95
2022-10-13T19:25:48.665Z,11.98
2022-10-13T19:28:15.358Z,11.45
2022-10-13T19:30:42.160Z,12.27
2022-10-13T19:33:11.466Z,12.02
2022-10-13T19:35:51.322Z,11.93
2022-10-13T19:38:18.660Z,12.15
2022-10-13T19:40:49.398Z,11.65
2022-10-13T19:43:17.158Z,11.05
2022-10-13T19:45:46.711Z,11.93
2022-10-13T19:48:13.905Z,11.00
2022-10-13T19:50:41.770Z,11.35
2022-10-13T19:53:09.607Z,10.55
2022-10-13T19:55:40.476Z,10.98
2022-10-13T19:58:06.867Z,10.77
2022-10-13T20:00:34.044Z,11.32
2022-10-13T20:03:01.305Z,11.25
2022-10-13T20:05:28.014Z,11.98
2022-10-13T20:07:55.544Z,11.25
2022-10-13T20:10:22.459Z,10.98
2022-10-13T20:12:48.893Z,10.55
2022-10-13T20:15:15.376Z,11.73
2022-10-13T20:17:41.731Z,11.65
2022-10-13T20:20:08.596Z,11.02
2022-10-13T20:22:35.201Z,10.80
2022-10-13T20:25:01.543Z,11.32
2022-10-13T20:27:28.021Z,11.48
2022-10-13T20:29:54.449Z,11.93
2022-10-13T20:32:20.797Z,11.07
2022-10-13T20:34:47.255Z,12.45
2022-10-13T20:37:14.091Z,11.07
2022-10-13T20:39:40.943Z,10.90
2022-10-13T20:42:07.347Z,11.43
2022-10-13T20:44:33.770Z,12.23
2022-10-13T20:47:00.169Z,11.70
2022-10-13T20:49:26.623Z,12.02
2022-10-13T20:51:52.972Z,12.48
2022-10-13T20:54:19.296Z,12.80
2022-10-13T20:56:47.144Z,12.82
2022-10-13T20:59:16.586Z,13.10
2022-10-13T21:01:43.510Z,13.55
2022-10-13T21:04:10.125Z,13.25
2022-10-13T21:06:36.638Z,13.40
2022-10-13T21:09:05.043Z,14.20
2022-10-13T21:11:31.485Z,13.23
2022-10-13T21:13:57.914Z,13.13
2022-10-13T21:16:29.666Z,12.82
2022-10-13T21:21:28.688Z,12.93
2022-10-13T21:23:57.347Z,14.55
2022-10-13T21:26:25.407Z,13.30
2022-10-13T21:28:52.319Z,14.10
2022-10-13T21:31:20.462Z,12.65
2022-10-13T21:33:46.821Z,14.27
2022-10-13T21:36:16.933Z,12.90
2022-10-13T21:38:45.425Z,13.20
2022-10-13T21:41:14.065Z,13.35
2022-10-13T21:43:40.792Z,12.73
2022-10-13T21:46:15.913Z,12.00
2022-10-13T21:48:43.791Z,12.90
2022-10-13T21:51:23.166Z,11.63
2022-10-13T21:53:51.854Z,12.60
2022-10-13T21:56:19.141Z,12.05
2022-10-13T21:58:45.994Z,12.15
2022-10-13T22:01:12.347Z,11.63
2022-10-13T22:03:38.780Z,10.98
2022-10-13T22:06:07.420Z,10.55
2022-10-13T22:08:38.730Z,12.35
2022-10-13T22:11:06.855Z,11.80
2022-10-13T22:13:33.353Z,11.48
2022-10-13T22:16:08.038Z,11.63
2022-10-13T22:18:34.370Z,11.85
2022-10-13T22:21:06.618Z,11.80
2022-10-13T22:23:33.412Z,12.63
2022-10-13T22:25:59.737Z,13.10
2022-10-13T22:28:26.180Z,12.05
2022-10-13T22:30:52.790Z,11.30
2022-10-13T22:33:20.012Z,12.50
2022-10-13T22:35:46.808Z,13.48
2022-10-13T22:38:14.399Z,12.55
2022-10-13T22:40:41.542Z,12.65
2022-10-13T22:43:08.305Z,11.68
2022-10-13T22:45:34.663Z,13.00
2022-10-13T22:48:02.087Z,11.77
2022-10-13T22:50:28.486Z,12.88
2022-10-13T22:52:54.817Z,12.95
2022-10-13T22:55:21.127Z,12.90
2022-10-13T22:57:47.438Z,13.05
2022-10-13T23:00:14.355Z,14.32
2022-10-13T23:02:40.686Z,13.40
2022-10-13T23:05:07.408Z,13.15
2022-10-13T23:07:33.753Z,13.57
2022-10-13T23:10:00.107Z,12.82
2022-10-13T23:12:26.443Z,11.93
2022-10-13T23:14:52.779Z,12.00
2022-10-13T23:17:19.458Z,12.55
2022-10-13T23:19:45.919Z,12.85
2022-10-13T23:22:12.261Z,12.68
2022-10-13T23:24:38.568Z,11.25
2022-10-13T23:27:04.870Z,12.13
2022-10-13T23:29:32.038Z,12.25
2022-10-13T23:31:58.342Z,11.38
2022-10-13T23:34:24.751Z,11.80
2022-10-13T23:36:51.469Z,11.93
2022-10-13T23:39:17.894Z,12.15
2022-10-13T23:41:44.198Z,12.45
2022-10-13T23:44:10.543Z,12.80
2022-10-13T23:46:36.869Z,11.30
2022-10-13T23:49:03.370Z,12.70
2022-10-13T23:51:29.855Z,11.13
2022-10-13T23:53:56.212Z,12.15
2022-10-13T23:56:23.390Z,11.18
2022-10-13T23:58:49.829Z,12.15
